sensor_id;sensor_type;location;lat;lon;timestamp;P1;durP1;ratioP1;P2;durP2;ratioP2
11518;SDS011;5816;48.228;14.116;2023-02-01T05:38:26;23.33;;;21.53;;
11518;SDS011;5816;48.228;14.116;2023-02-01T05:43:28;23.43;;;21.73;;
11518;SDS011;5816;48.228;14.116;2023-02-01T05:48:29;23.67;;;21.90;;
11518;SDS011;5816;48.228;14.116;2023-02-01T05:53:31;23.90;;;22.30;;
11518;SDS011;5816;48.228;14.116;2023-02-01T05:58:33;25.97;;;23.77;;
11518;SDS011;5816;48.228;14.116;2023-02-01T06:03:35;27.67;;;25.37;;
11518;SDS011;5816;48.228;14.116;2023-02-01T06:08:37;25.10;;;23.20;;
11518;SDS011;5816;48.228;14.116;2023-02-01T06:13:41;24.47;;;22.67;;
11518;SDS011;5816;48.228;14.116;2023-02-01T06:18:43;24.57;;;22.57;;
11518;SDS011;5816;48.228;14.116;2023-02-01T06:23:44;24.73;;;22.93;;
11518;SDS011;5816;48.228;14.116;2023-02-01T06:28:46;25.97;;;23.97;;
11518;SDS011;5816;48.228;14.116;2023-02-01T06:33:48;25.50;;;23.50;;
11518;SDS011;5816;48.228;14.116;2023-02-01T06:38:50;24.47;;;22.67;;
11518;SDS011;5816;48.228;14.116;2023-02-01T06:43:51;24.00;;;22.30;;
11518;SDS011;5816;48.228;14.116;2023-02-01T06:48:53;25.60;;;23.73;;
11518;SDS011;5816;48.228;14.116;2023-02-01T06:53:55;26.03;;;24.03;;
11518;SDS011;5816;48.228;14.116;2023-02-01T06:58:58;25.43;;;23.53;;
11518;SDS011;5816;48.228;14.116;2023-02-01T07:04:00;25.50;;;23.40;;
11518;SDS011;5816;48.228;14.116;2023-02-01T07:09:02;24.30;;;22.40;;
11518;SDS011;5816;48.228;14.116;2023-02-01T07:14:04;24.83;;;22.97;;
11518;SDS011;5816;48.228;14.116;2023-02-01T07:19:05;23.60;;;21.90;;
11518;SDS011;5816;48.228;14.116;2023-02-01T07:24:07;25.17;;;23.37;;
11518;SDS011;5816;48.228;14.116;2023-02-01T07:29:10;24.27;;;22.47;;
11518;SDS011;5816;48.228;14.116;2023-02-01T07:34:12;24.90;;;22.97;;
11518;SDS011;5816;48.228;14.116;2023-02-01T07:39:13;26.10;;;24.20;;
11518;SDS011;5816;48.228;14.116;2023-02-01T07:44:15;26.20;;;24.20;;
11518;SDS011;5816;48.228;14.116;2023-02-01T07:49:20;29.13;;;27.03;;
11518;SDS011;5816;48.228;14.116;2023-02-01T07:54:22;25.70;;;23.80;;
11518;SDS011;5816;48.228;14.116;2023-02-01T07:59:23;26.40;;;24.10;;
11518;SDS011;5816;48.228;14.116;2023-02-01T08:04:25;23.93;;;22.13;;
11518;SDS011;5816;48.228;14.116;2023-02-01T08:09:27;26.73;;;24.73;;
11518;SDS011;5816;48.228;14.116;2023-02-01T08:14:28;25.57;;;23.67;;
11518;SDS011;5816;48.228;14.116;2023-02-01T08:19:30;28.50;;;26.00;;
11518;SDS011;5816;48.228;14.116;2023-02-01T08:24:32;25.23;;;23.23;;
11518;SDS011;5816;48.228;14.116;2023-02-01T08:29:35;25.37;;;23.47;;
11518;SDS011;5816;48.228;14.116;2023-02-01T08:34:37;23.90;;;22.20;;
11518;SDS011;5816;48.228;14.116;2023-02-01T08:39:39;23.23;;;21.63;;
11518;SDS011;5816;48.228;14.116;2023-02-01T08:44:41;24.00;;;22.40;;
11518;SDS011;5816;48.228;14.116;2023-02-01T08:49:43;24.17;;;22.47;;
11518;SDS011;5816;48.228;14.116;2023-02-01T08:54:46;23.30;;;21.80;;
11518;SDS011;5816;48.228;14.116;2023-02-01T08:59:47;25.13;;;23.23;;
11518;SDS011;5816;48.228;14.116;2023-02-01T09:04:49;23.93;;;22.33;;
11518;SDS011;5816;48.228;14.116;2023-02-01T09:09:51;24.87;;;23.17;;
11518;SDS011;5816;48.228;14.116;2023-02-01T09:14:55;24.73;;;22.93;;
11518;SDS011;5816;48.228;14.116;2023-02-01T09:19:58;24.33;;;22.43;;
11518;SDS011;5816;48.228;14.116;2023-02-01T09:25:00;24.43;;;22.73;;
11518;SDS011;5816;48.228;14.116;2023-02-01T09:30:02;24.87;;;23.07;;
11518;SDS011;5816;48.228;14.116;2023-02-01T09:35:06;24.33;;;22.63;;
11518;SDS011;5816;48.228;14.116;2023-02-01T09:40:10;25.17;;;23.37;;
11518;SDS011;5816;48.228;14.116;2023-02-01T09:45:31;24.40;;;22.70;;
11518;SDS011;5816;48.228;14.116;2023-02-01T09:51:02;24.63;;;22.93;;
11518;SDS011;5816;48.228;14.116;2023-02-01T10:01:24;24.17;;;22.47;;
11518;SDS011;5816;48.228;14.116;2023-02-01T10:22:04;24.70;;;22.80;;
11518;SDS011;5816;48.228;14.116;2023-02-01T10:27:22;24.30;;;22.40;;
11518;SDS011;5816;48.228;14.116;2023-02-01T10:32:36;24.43;;;22.43;;
11518;SDS011;5816;48.228;14.116;2023-02-01T10:37:38;23.93;;;22.23;;
11518;SDS011;5816;48.228;14.116;2023-02-01T10:42:43;23.97;;;22.00;;
11518;SDS011;5816;48.228;14.116;2023-02-01T10:47:46;24.93;;;23.03;;
11518;SDS011;5816;48.228;14.116;2023-02-01T10:53:01;24.30;;;22.40;;
11518;SDS011;5816;48.228;14.116;2023-02-01T10:58:14;25.13;;;22.97;;
11518;SDS011;5816;48.228;14.116;2023-02-01T11:08:31;23.40;;;21.63;;
11518;SDS011;5816;48.228;14.116;2023-02-01T11:13:36;24.23;;;22.47;;
11518;SDS011;5816;48.228;14.116;2023-02-01T11:18:40;23.57;;;21.97;;
11518;SDS011;5816;48.228;14.116;2023-02-01T11:23:43;23.30;;;21.70;;
11518;SDS011;5816;48.228;14.116;2023-02-01T11:28:50;23.40;;;21.70;;
11518;SDS011;5816;48.228;14.116;2023-02-01T11:34:04;23.63;;;22.03;;
11518;SDS011;5816;48.228;14.116;2023-02-01T11:49:34;23.97;;;22.20;;
11518;SDS011;5816;48.228;14.116;2023-02-01T12:05:10;22.87;;;21.27;;
11518;SDS011;5816;48.228;14.116;2023-02-01T12:37:09;23.10;;;21.30;;
11518;SDS011;5816;48.228;14.116;2023-02-01T12:42:16;23.30;;;21.60;;
11518;SDS011;5816;48.228;14.116;2023-02-01T12:47:32;22.90;;;21.27;;
11518;SDS011;5816;48.228;14.116;2023-02-01T12:52:40;23.67;;;21.97;;
11518;SDS011;5816;48.228;14.116;2023-02-01T12:57:49;22.70;;;21.00;;
11518;SDS011;5816;48.228;14.116;2023-02-01T13:20:05;25.23;;;23.20;;
11518;SDS011;5816;48.228;14.116;2023-02-01T13:24:57;24.23;;;22.53;;
11518;SDS011;5816;48.228;14.116;2023-02-01T13:40:41;26.30;;;24.20;;
11518;SDS011;5816;48.228;14.116;2023-02-01T13:45:52;26.93;;;24.70;;
11518;SDS011;5816;48.228;14.116;2023-02-01T13:50:58;25.33;;;23.23;;
11518;SDS011;5816;48.228;14.116;2023-02-01T13:56:01;24.80;;;23.00;;
11518;SDS011;5816;48.228;14.116;2023-02-01T14:11:32;26.67;;;24.67;;
11518;SDS011;5816;48.228;14.116;2023-02-01T14:16:37;26.50;;;24.40;;
11518;SDS011;5816;48.228;14.116;2023-02-01T14:21:49;24.97;;;23.17;;
11518;SDS011;5816;48.228;14.116;2023-02-01T14:27:18;25.87;;;23.67;;
11518;SDS011;5816;48.228;14.116;2023-02-01T14:32:26;26.30;;;24.20;;
11518;SDS011;5816;48.228;14.116;2023-02-01T14:37:36;26.07;;;23.77;;
11518;SDS011;5816;48.228;14.116;2023-02-01T14:47:51;24.97;;;23.10;;
11518;SDS011;5816;48.228;14.116;2023-02-01T15:04:24;25.23;;;23.33;;
11518;SDS011;5816;48.228;14.116;2023-02-01T15:09:31;24.53;;;22.73;;
11518;SDS011;5816;48.228;14.116;2023-02-01T15:14:37;23.53;;;21.80;;
11518;SDS011;5816;48.228;14.116;2023-02-01T15:19:41;25.83;;;23.10;;
11518;SDS011;5816;48.228;14.116;2023-02-01T15:24:55;25.00;;;22.90;;
11518;SDS011;5816;48.228;14.116;2023-02-01T15:30:07;23.87;;;21.97;;
11518;SDS011;5816;48.228;14.116;2023-02-01T15:41:08;23.63;;;21.60;;
11518;SDS011;5816;48.228;14.116;2023-02-01T15:46:15;23.30;;;21.10;;
11518;SDS011;5816;48.228;14.116;2023-02-01T15:51:23;23.70;;;21.77;;
11518;SDS011;5816;48.228;14.116;2023-02-01T15:56:29;23.23;;;21.30;;
11518;SDS011;5816;48.228;14.116;2023-02-01T16:01:36;22.87;;;20.97;;
11518;SDS011;5816;48.228;14.116;2023-02-01T16:06:51;22.57;;;20.80;;
11518;SDS011;5816;48.228;14.116;2023-02-01T16:11:59;23.23;;;21.37;;
11518;SDS011;5816;48.228;14.116;2023-02-01T16:17:02;23.57;;;21.50;;
11518;SDS011;5816;48.228;14.116;2023-02-01T16:22:04;23.13;;;21.27;;
11518;SDS011;5816;48.228;14.116;2023-02-01T16:27:05;23.83;;;21.97;;
11518;SDS011;5816;48.228;14.116;2023-02-01T16:32:16;22.10;;;20.37;;
11518;SDS011;5816;48.228;14.116;2023-02-01T16:37:21;23.23;;;21.33;;
11518;SDS011;5816;48.228;14.116;2023-02-01T16:42:25;23.07;;;21.07;;
11518;SDS011;5816;48.228;14.116;2023-02-01T16:47:26;23.60;;;21.70;;
11518;SDS011;5816;48.228;14.116;2023-02-01T16:52:28;23.50;;;21.33;;
11518;SDS011;5816;48.228;14.116;2023-02-01T16:57:30;22.83;;;20.90;;
11518;SDS011;5816;48.228;14.116;2023-02-01T17:02:32;22.40;;;20.60;;
11518;SDS011;5816;48.228;14.116;2023-02-01T17:07:34;22.10;;;20.37;;
11518;SDS011;5816;48.228;14.116;2023-02-01T17:12:36;22.27;;;20.47;;
11518;SDS011;5816;48.228;14.116;2023-02-01T17:17:38;21.47;;;19.97;;
11518;SDS011;5816;48.228;14.116;2023-02-01T17:22:43;22.17;;;20.37;;
11518;SDS011;5816;48.228;14.116;2023-02-01T17:27:45;21.90;;;20.30;;
11518;SDS011;5816;48.228;14.116;2023-02-01T17:32:46;22.70;;;19.30;;
11518;SDS011;5816;48.228;14.116;2023-02-01T17:37:49;23.30;;;21.50;;
11518;SDS011;5816;48.228;14.116;2023-02-01T17:42:51;22.17;;;20.37;;
11518;SDS011;5816;48.228;14.116;2023-02-01T17:47:57;22.13;;;20.57;;
11518;SDS011;5816;48.228;14.116;2023-02-01T17:52:59;22.87;;;20.87;;
11518;SDS011;5816;48.228;14.116;2023-02-01T17:58:01;22.83;;;21.10;;
11518;SDS011;5816;48.228;14.116;2023-02-01T18:03:03;21.87;;;20.23;;
11518;SDS011;5816;48.228;14.116;2023-02-01T18:08:05;25.13;;;22.73;;
11518;SDS011;5816;48.228;14.116;2023-02-01T18:13:07;22.77;;;20.90;;
11518;SDS011;5816;48.228;14.116;2023-02-01T18:18:12;23.67;;;21.53;;
11518;SDS011;5816;48.228;14.116;2023-02-01T18:23:18;23.50;;;21.57;;
11518;SDS011;5816;48.228;14.116;2023-02-01T18:28:22;24.40;;;22.13;;
11518;SDS011;5816;48.228;14.116;2023-02-01T18:33:24;25.27;;;23.13;;
11518;SDS011;5816;48.228;14.116;2023-02-01T18:38:26;23.57;;;21.30;;
11518;SDS011;5816;48.228;14.116;2023-02-01T18:43:27;22.47;;;20.43;;
11518;SDS011;5816;48.228;14.116;2023-02-01T18:48:29;21.53;;;19.83;;
11518;SDS011;5816;48.228;14.116;2023-02-01T18:53:31;22.53;;;20.83;;
11518;SDS011;5816;48.228;14.116;2023-02-01T18:58:33;22.63;;;20.77;;
11518;SDS011;5816;48.228;14.116;2023-02-01T19:03:35;23.80;;;21.80;;
11518;SDS011;5816;48.228;14.116;2023-02-01T19:08:44;23.57;;;21.70;;
11518;SDS011;5816;48.228;14.116;2023-02-01T19:13:48;22.43;;;20.53;;
11518;SDS011;5816;48.228;14.116;2023-02-01T19:18:51;22.77;;;20.87;;
11518;SDS011;5816;48.228;14.116;2023-02-01T19:23:53;22.47;;;20.83;;
11518;SDS011;5816;48.228;14.116;2023-02-01T19:28:56;22.50;;;20.80;;
11518;SDS011;5816;48.228;14.116;2023-02-01T19:33:59;22.80;;;20.77;;
11518;SDS011;5816;48.228;14.116;2023-02-01T19:39:00;22.73;;;20.97;;
11518;SDS011;5816;48.228;14.116;2023-02-01T19:44:02;22.87;;;20.97;;
11518;SDS011;5816;48.228;14.116;2023-02-01T19:49:05;23.80;;;21.33;;
11518;SDS011;5816;48.228;14.116;2023-02-01T19:54:12;23.10;;;21.20;;
11518;SDS011;5816;48.228;14.116;2023-02-01T19:59:13;23.70;;;21.47;;
11518;SDS011;5816;48.228;14.116;2023-02-01T20:04:15;22.10;;;20.20;;
11518;SDS011;5816;48.228;14.116;2023-02-01T20:09:27;23.33;;;21.57;;
11518;SDS011;5816;48.228;14.116;2023-02-01T20:14:30;25.10;;;23.00;;
11518;SDS011;5816;48.228;14.116;2023-02-01T20:19:32;23.33;;;21.43;;
11518;SDS011;5816;48.228;14.116;2023-02-01T20:24:34;22.63;;;20.97;;
11518;SDS011;5816;48.228;14.116;2023-02-01T20:29:36;23.10;;;21.20;;
11518;SDS011;5816;48.228;14.116;2023-02-01T20:34:38;22.37;;;20.60;;
11518;SDS011;5816;48.228;14.116;2023-02-01T20:39:39;23.40;;;21.27;;
11518;SDS011;5816;48.228;14.116;2023-02-01T20:44:41;22.60;;;20.70;;
11518;SDS011;5816;48.228;14.116;2023-02-01T20:49:43;23.20;;;21.30;;
11518;SDS011;5816;48.228;14.116;2023-02-01T20:54:44;23.30;;;20.93;;
11518;SDS011;5816;48.228;14.116;2023-02-01T20:59:46;22.90;;;21.17;;
11518;SDS011;5816;48.228;14.116;2023-02-01T21:04:49;22.80;;;20.77;;
11518;SDS011;5816;48.228;14.116;2023-02-01T21:09:51;22.20;;;20.30;;
11518;SDS011;5816;48.228;14.116;2023-02-01T21:14:52;22.27;;;20.57;;
11518;SDS011;5816;48.228;14.116;2023-02-01T21:19:55;23.30;;;21.43;;
11518;SDS011;5816;48.228;14.116;2023-02-01T21:24:57;22.07;;;20.40;;
11518;SDS011;5816;48.228;14.116;2023-02-01T21:30:02;22.63;;;20.53;;
11518;SDS011;5816;48.228;14.116;2023-02-01T21:35:08;22.13;;;20.33;;
11518;SDS011;5816;48.228;14.116;2023-02-01T21:40:10;22.07;;;20.47;;
11518;SDS011;5816;48.228;14.116;2023-02-01T21:45:13;23.40;;;21.20;;
11518;SDS011;5816;48.228;14.116;2023-02-01T21:50:16;22.43;;;20.77;;
